sensor_id;sensor_type;location;lat;lon;timestamp;pressure;altitude;pressure_sealevel;temperature;humidity
11808;BME280;5961;42.640;23.380;2023-06-05T00:00:23;94514.78;;;18.15;98.77
11808;BME280;5961;42.640;23.380;2023-06-05T00:02:51;94505.44;;;18.05;98.90
11808;BME280;5961;42.640;23.380;2023-06-05T00:05:18;94526.22;;;18.08;99.30
11808;BME280;5961;42.640;23.380;2023-06-05T00:07:45;94530.09;;;18.10;98.68
11808;BME280;5961;42.640;23.380;2023-06-05T00:10:12;94520.91;;;18.12;98.31
11808;BME280;5961;42.640;23.380;2023-06-05T00:12:39;94526.28;;;18.12;98.66
11808;BME280;5961;42.640;23.380;2023-06-05T00:15:07;94517.75;;;18.06;100.00
11808;BME280;5961;42.640;23.380;2023-06-05T00:17:34;94517.06;;;18.13;100.00
11808;BME280;5961;42.640;23.380;2023-06-05T00:20:03;94523.19;;;18.09;100.00
11808;BME280;5961;42.640;23.380;2023-06-05T00:22:31;94527.00;;;18.08;100.00
11808;BME280;5961;42.640;23.380;2023-06-05T00:24:59;94524.69;;;18.07;100.00
11808;BME280;5961;42.640;23.380;2023-06-05T00:27:25;94523.59;;;18.12;100.00
11808;BME280;5961;42.640;23.380;2023-06-05T00:29:52;94529.75;;;18.12;100.00
11808;BME280;5961;42.640;23.380;2023-06-05T00:32:19;94518.94;;;18.08;100.00
11808;BME280;5961;42.640;23.380;2023-06-05T00:34:45;94525.00;;;18.02;100.00
11808;BME280;5961;42.640;23.380;2023-06-05T00:37:16;94515.75;;;17.99;100.00
11808;BME280;5961;42.640;23.380;2023-06-05T00:39:43;94520.66;;;17.90;100.00
11808;BME280;5961;42.640;23.380;2023-06-05T00:42:10;94524.16;;;17.94;100.00
11808;BME280;5961;42.640;23.380;2023-06-05T00:44:37;94516.81;;;17.91;100.00
11808;BME280;5961;42.640;23.380;2023-06-05T00:47:04;94503.28;;;17.84;100.00
11808;BME280;5961;42.640;23.380;2023-06-05T00:49:31;94512.59;;;17.90;100.00
11808;BME280;5961;42.640;23.380;2023-06-05T00:51:58;94513.69;;;17.86;100.00
11808;BME280;5961;42.640;23.380;2023-06-05T00:54:27;94505.19;;;17.84;100.00
11808;BME280;5961;42.640;23.380;2023-06-05T00:56:54;94482.69;;;17.66;100.00
11808;BME280;5961;42.640;23.380;2023-06-05T00:59:21;94493.94;;;17.75;100.00
11808;BME280;5961;42.640;23.380;2023-06-05T01:01:48;94489.75;;;17.77;100.00
11808;BME280;5961;42.640;23.380;2023-06-05T01:04:15;94439.41;;;17.44;100.00
11808;BME280;5961;42.640;23.380;2023-06-05T01:06:42;94490.97;;;17.80;100.00
11808;BME280;5961;42.640;23.380;2023-06-05T01:09:09;94488.22;;;17.76;100.00
11808;BME280;5961;42.640;23.380;2023-06-05T01:11:45;94498.97;;;17.76;100.00
11808;BME280;5961;42.640;23.380;2023-06-05T01:14:18;94491.94;;;17.68;99.00
11808;BME280;5961;42.640;23.380;2023-06-05T01:16:48;94488.06;;;17.66;99.15
11808;BME280;5961;42.640;23.380;2023-06-05T01:19:17;94483.88;;;17.65;99.61
11808;BME280;5961;42.640;23.380;2023-06-05T01:21:43;94479.16;;;17.58;99.84
11808;BME280;5961;42.640;23.380;2023-06-05T01:24:12;94484.63;;;17.65;99.90
11808;BME280;5961;42.640;23.380;2023-06-05T01:26:47;94482.34;;;17.67;100.00
11808;BME280;5961;42.640;23.380;2023-06-05T01:29:23;94479.28;;;17.69;100.00
11808;BME280;5961;42.640;23.380;2023-06-05T01:31:55;94485.84;;;17.71;99.51
11808;BME280;5961;42.640;23.380;2023-06-05T01:34:25;94494.63;;;17.68;99.72
11808;BME280;5961;42.640;23.380;2023-06-05T01:36:53;94488.91;;;17.70;99.79
11808;BME280;5961;42.640;23.380;2023-06-05T01:39:23;94430.91;;;17.39;99.97
11808;BME280;5961;42.640;23.380;2023-06-05T01:41:51;94468.09;;;17.63;100.00
11808;BME280;5961;42.640;23.380;2023-06-05T01:44:20;94479.72;;;17.74;100.00
11808;BME280;5961;42.640;23.380;2023-06-05T01:46:48;94475.19;;;17.78;100.00
11808;BME280;5961;42.640;23.380;2023-06-05T01:49:15;94469.47;;;17.83;99.92
11808;BME280;5961;42.640;23.380;2023-06-05T01:51:42;94467.97;;;17.86;99.89
11808;BME280;5961;42.640;23.380;2023-06-05T01:54:09;94466.03;;;17.86;99.78
11808;BME280;5961;42.640;23.380;2023-06-05T01:56:37;94473.28;;;17.79;100.00
11808;BME280;5961;42.640;23.380;2023-06-05T01:59:05;94471.34;;;17.79;100.00
11808;BME280;5961;42.640;23.380;2023-06-05T02:01:33;94465.16;;;17.75;100.00
11808;BME280;5961;42.640;23.380;2023-06-05T02:04:00;94460.47;;;17.69;100.00
11808;BME280;5961;42.640;23.380;2023-06-05T02:06:32;94455.47;;;17.67;100.00
11808;BME280;5961;42.640;23.380;2023-06-05T02:09:01;94459.63;;;17.61;100.00
11808;BME280;5961;42.640;23.380;2023-06-05T02:11:28;94466.50;;;17.59;100.00
11808;BME280;5961;42.640;23.380;2023-06-05T02:13:56;94461.78;;;17.52;100.00
11808;BME280;5961;42.640;23.380;2023-06-05T02:16:25;94457.88;;;17.46;100.00
11808;BME280;5961;42.640;23.380;2023-06-05T02:18:52;94451.66;;;17.42;100.00
11808;BME280;5961;42.640;23.380;2023-06-05T02:21:18;94459.66;;;17.38;100.00
11808;BME280;5961;42.640;23.380;2023-06-05T02:23:45;94465.03;;;17.38;100.00
11808;BME280;5961;42.640;23.380;2023-06-05T02:26:12;94459.72;;;17.42;100.00
11808;BME280;5961;42.640;23.380;2023-06-05T02:28:38;94461.69;;;17.45;100.00
11808;BME280;5961;42.640;23.380;2023-06-05T02:31:06;94458.66;;;17.46;100.00
11808;BME280;5961;42.640;23.380;2023-06-05T02:33:33;94460.94;;;17.48;100.00
11808;BME280;5961;42.640;23.380;2023-06-05T02:36:00;94460.19;;;17.47;100.00
11808;BME280;5961;42.640;23.380;2023-06-05T02:38:27;94462.88;;;17.47;100.00
11808;BME280;5961;42.640;23.380;2023-06-05T02:40:54;94473.22;;;17.45;100.00
11808;BME280;5961;42.640;23.380;2023-06-05T02:43:20;94466.31;;;17.48;100.00
11808;BME280;5961;42.640;23.380;2023-06-05T02:45:47;94460.94;;;17.48;100.00
11808;BME280;5961;42.640;23.380;2023-06-05T02:48:15;94467.84;;;17.45;100.00
11808;BME280;5961;42.640;23.380;2023-06-05T02:50:42;94461.78;;;17.52;100.00
11808;BME280;5961;42.640;23.380;2023-06-05T02:53:09;94464.88;;;17.54;100.00
11808;BME280;5961;42.640;23.380;2023-06-05T02:55:36;94463.63;;;17.48;100.00
11808;BME280;5961;42.640;23.380;2023-06-05T02:58:05;94474.78;;;17.50;100.00
11808;BME280;5961;42.640;23.380;2023-06-05T03:00:32;94469.75;;;17.45;100.00
11808;BME280;5961;42.640;23.380;2023-06-05T03:02:58;94467.06;;;17.45;100.00
11808;BME280;5961;42.640;23.380;2023-06-05T03:05:27;94467.47;;;17.47;100.00
11808;BME280;5961;42.640;23.380;2023-06-05T03:07:54;94464.03;;;17.50;100.00
11808;BME280;5961;42.640;23.380;2023-06-05T03:10:21;94461.00;;;17.51;100.00
11808;BME280;5961;42.640;23.380;2023-06-05T03:12:48;94471.38;;;17.53;100.00
11808;BME280;5961;42.640;23.380;2023-06-05T03:15:16;94474.84;;;17.53;100.00
11808;BME280;5961;42.640;23.380;2023-06-05T03:17:43;94481.06;;;17.58;100.00
11808;BME280;5961;42.640;23.380;2023-06-05T03:20:11;94477.59;;;17.57;100.00
11808;BME280;5961;42.640;23.380;2023-06-05T03:22:39;94479.16;;;17.58;100.00
11808;BME280;5961;42.640;23.380;2023-06-05T03:25:07;94482.59;;;17.55;100.00
11808;BME280;5961;42.640;23.380;2023-06-05T03:27:33;94483.28;;;17.52;100.00
11808;BME280;5961;42.640;23.380;2023-06-05T03:30:01;94489.34;;;17.45;100.00
11808;BME280;5961;42.640;23.380;2023-06-05T03:32:27;94484.34;;;17.47;100.00
11808;BME280;5961;42.640;23.380;2023-06-05T03:34:54;94488.56;;;17.45;100.00
11808;BME280;5961;42.640;23.380;2023-06-05T03:37:21;94502.03;;;17.48;100.00
11808;BME280;5961;42.640;23.380;2023-06-05T03:39:49;94499.41;;;17.52;100.00
11808;BME280;5961;42.640;23.380;2023-06-05T03:42:15;94487.38;;;17.42;100.00
11808;BME280;5961;42.640;23.380;2023-06-05T03:44:42;94488.56;;;17.45;100.00
11808;BME280;5961;42.640;23.380;2023-06-05T03:47:09;94501.66;;;17.50;99.96
11808;BME280;5961;42.640;23.380;2023-06-05T03:49:37;94500.19;;;17.52;100.00
11808;BME280;5961;42.640;23.380;2023-06-05T03:52:11;94509.38;;;17.51;100.00
11808;BME280;5961;42.640;23.380;2023-06-05T03:54:40;94503.22;;;17.51;100.00
11808;BME280;5961;42.640;23.380;2023-06-05T03:57:11;94496.72;;;17.52;100.00
11808;BME280;5961;42.640;23.380;2023-06-05T03:59:40;94496.34;;;17.53;100.00
11808;BME280;5961;42.640;23.380;2023-06-05T04:02:07;94497.19;;;17.58;100.00
11808;BME280;5961;42.640;23.380;2023-06-05T04:04:33;94501.78;;;17.57;100.00
11808;BME280;5961;42.640;23.380;2023-06-05T04:07:00;94500.25;;;17.56;100.00
11808;BME280;5961;42.640;23.380;2023-06-05T04:09:27;94499.94;;;17.61;100.00
11808;BME280;5961;42.640;23.380;2023-06-05T04:11:54;94494.88;;;17.56;100.00
11808;BME280;5961;42.640;23.380;2023-06-05T04:14:22;94497.25;;;17.61;100.00
11808;BME280;5961;42.640;23.380;2023-06-05T04:16:48;94505.38;;;17.65;100.00
11808;BME280;5961;42.640;23.380;2023-06-05T04:19:15;94503.44;;;17.65;100.00
11808;BME280;5961;42.640;23.380;2023-06-05T04:21:42;94499.59;;;17.66;100.00
11808;BME280;5961;42.640;23.380;2023-06-05T04:24:09;94494.28;;;17.70;100.00
11808;BME280;5961;42.640;23.380;2023-06-05T04:26:37;94508.16;;;17.75;100.00
11808;BME280;5961;42.640;23.380;2023-06-05T04:29:04;94502.47;;;17.80;100.00
11808;BME280;5961;42.640;23.380;2023-06-05T04:31:40;94504.47;;;17.87;100.00
11808;BME280;5961;42.640;23.380;2023-06-05T04:34:07;94501.38;;;17.85;100.00
11808;BME280;5961;42.640;23.380;2023-06-05T04:36:34;94500.66;;;17.88;100.00
11808;BME280;5961;42.640;23.380;2023-06-05T04:39:02;94509.94;;;17.94;100.00
11808;BME280;5961;42.640;23.380;2023-06-05T04:41:29;94503.06;;;17.96;100.00
11808;BME280;5961;42.640;23.380;2023-06-05T04:43:57;94506.59;;;18.04;100.00
11808;BME280;5961;42.640;23.380;2023-06-05T04:46:25;94491.66;;;18.06;100.00
11808;BME280;5961;42.640;23.380;2023-06-05T04:48:53;94500.56;;;18.14;100.00
11808;BME280;5961;42.640;23.380;2023-06-05T04:51:23;94495.59;;;18.20;100.00
11808;BME280;5961;42.640;23.380;2023-06-05T04:53:49;94504.84;;;18.19;100.00
11808;BME280;5961;42.640;23.380;2023-06-05T04:56:18;94503.63;;;18.16;100.00
11808;BME280;5961;42.640;23.380;2023-06-05T04:58:45;94510.28;;;18.26;100.00
11808;BME280;5961;42.640;23.380;2023-06-05T05:01:13;94502.22;;;18.26;100.00
11808;BME280;5961;42.640;23.380;2023-06-05T05:03:41;94507.69;;;18.33;100.00
11808;BME280;5961;42.640;23.380;2023-06-05T05:06:14;94501.16;;;18.37;100.00
11808;BME280;5961;42.640;23.380;2023-06-05T05:08:41;94508.16;;;18.42;100.00
11808;BME280;5961;42.640;23.380;2023-06-05T05:11:12;94497.41;;;18.45;100.00
11808;BME280;5961;42.640;23.380;2023-06-05T05:13:39;94499.03;;;18.50;100.00
11808;BME280;5961;42.640;23.380;2023-06-05T05:16:05;94494.81;;;18.49;100.00
11808;BME280;5961;42.640;23.380;2023-06-05T05:18:33;94493.63;;;18.50;100.00
11808;BME280;5961;42.640;23.380;2023-06-05T05:21:00;94490.53;;;18.48;100.00
11808;BME280;5961;42.640;23.380;2023-06-05T05:23:29;94503.25;;;18.51;100.00
11808;BME280;5961;42.640;23.380;2023-06-05T05:25:55;94496.75;;;18.52;100.00
11808;BME280;5961;42.640;23.380;2023-06-05T05:28:22;94484.03;;;18.49;100.00
11808;BME280;5961;42.640;23.380;2023-06-05T05:30:51;94493.69;;;18.53;100.00
11808;BME280;5961;42.640;23.380;2023-06-05T05:33:18;94459.25;;;18.33;100.00
11808;BME280;5961;42.640;23.380;2023-06-05T05:35:46;94493.75;;;18.60;100.00
11808;BME280;5961;42.640;23.380;2023-06-05T05:38:13;94498.75;;;18.62;100.00
11808;BME280;5961;42.640;23.380;2023-06-05T05:40:41;94504.56;;;18.68;100.00
11808;BME280;5961;42.640;23.380;2023-06-05T05:43:07;94503.81;;;18.71;100.00
11808;BME280;5961;42.640;23.380;2023-06-05T05:45:34;94500.34;;;18.67;100.00
11808;BME280;5961;42.640;23.380;2023-06-05T05:48:03;94496.94;;;18.73;100.00
11808;BME280;5961;42.640;23.380;2023-06-05T05:50:30;94489.66;;;18.77;100.00
11808;BME280;5961;42.640;23.380;2023-06-05T05:52:57;94481.19;;;18.75;100.00
11808;BME280;5961;42.640;23.380;2023-06-05T05:55:24;94490.47;;;18.81;100.00
11808;BME280;5961;42.640;23.380;2023-06-05T05:57:52;94477.38;;;18.83;100.00
11808;BME280;5961;42.640;23.380;2023-06-05T06:00:19;94483.59;;;18.87;100.00
11808;BME280;5961;42.640;23.380;2023-06-05T06:02:46;94476.31;;;18.91;100.00
11808;BME280;5961;42.640;23.380;2023-06-05T06:05:13;94475.22;;;18.99;100.00
11808;BME280;5961;42.640;23.380;2023-06-05T06:07:40;94485.28;;;19.09;100.00
11808;BME280;5961;42.640;23.380;2023-06-05T06:10:08;94481.09;;;19.15;100.00
11808;BME280;5961;42.640;23.380;2023-06-05T06:12:37;94483.44;;;19.21;100.00
11808;BME280;5961;42.640;23.380;2023-06-05T06:15:06;94488.06;;;19.24;100.00
11808;BME280;5961;42.640;23.380;2023-06-05T06:17:33;94488.50;;;19.33;100.00
11808;BME280;5961;42.640;23.380;2023-06-05T06:20:00;94495.84;;;19.36;100.00
11808;BME280;5961;42.640;23.380;2023-06-05T06:22:27;94488.13;;;19.34;100.00
11808;BME280;5961;42.640;23.380;2023-06-05T06:24:54;94510.53;;;19.42;100.00
11808;BME280;5961;42.640;23.380;2023-06-05T06:27:21;94494.44;;;19.49;100.00
11808;BME280;5961;42.640;23.380;2023-06-05T06:29:49;94491.38;;;19.54;100.00
11808;BME280;5961;42.640;23.380;2023-06-05T06:32:19;94482.13;;;19.55;99.20
11808;BME280;5961;42.640;23.380;2023-06-05T06:34:45;94493.72;;;19.62;99.16
11808;BME280;5961;42.640;23.380;2023-06-05T06:37:12;94484.13;;;19.68;98.08
11808;BME280;5961;42.640;23.380;2023-06-05T06:39:40;94478.34;;;19.70;97.28
11808;BME280;5961;42.640;23.380;2023-06-05T06:42:07;94480.66;;;19.71;97.06
11808;BME280;5961;42.640;23.380;2023-06-05T06:44:35;94489.13;;;19.70;97.46
11808;BME280;5961;42.640;23.380;2023-06-05T06:47:02;94454.41;;;19.58;96.69
11808;BME280;5961;42.640;23.380;2023-06-05T06:49:30;94474.91;;;19.73;96.29
11808;BME280;5961;42.640;23.380;2023-06-05T06:51:57;94472.19;;;19.73;95.93
11808;BME280;5961;42.640;23.380;2023-06-05T06:54:23;94461.41;;;19.73;96.53
11808;BME280;5961;42.640;23.380;2023-06-05T06:56:53;94472.97;;;19.77;97.10
11808;BME280;5961;42.640;23.380;2023-06-05T06:59:20;94464.09;;;19.77;96.72
11808;BME280;5961;42.640;23.380;2023-06-05T07:02:08;94471.88;;;19.85;96.91
11808;BME280;5961;42.640;23.380;2023-06-05T07:04:37;94460.69;;;19.90;96.14
11808;BME280;5961;42.640;23.380;2023-06-05T07:07:04;94474.59;;;19.96;95.82
11808;BME280;5961;42.640;23.380;2023-06-05T07:09:31;94469.97;;;20.00;95.88
11808;BME280;5961;42.640;23.380;2023-06-05T07:11:58;94456.09;;;19.94;96.27
11808;BME280;5961;42.640;23.380;2023-06-05T07:14:30;94470.78;;;20.07;94.62
11808;BME280;5961;42.640;23.380;2023-06-05T07:16:57;94433.72;;;19.87;93.87
11808;BME280;5961;42.640;23.380;2023-06-05T07:19:25;94470.03;;;20.17;93.66
11808;BME280;5961;42.640;23.380;2023-06-05T07:21:54;94473.50;;;20.18;93.27
11808;BME280;5961;42.640;23.380;2023-06-05T07:24:20;94476.22;;;20.21;93.24
11808;BME280;5961;42.640;23.380;2023-06-05T07:26:49;94462.72;;;20.21;93.46
11808;BME280;5961;42.640;23.380;2023-06-05T07:29:17;94465.44;;;20.21;93.17
11808;BME280;5961;42.640;23.380;2023-06-05T07:31:44;94471.63;;;20.25;92.95
11808;BME280;5961;42.640;23.380;2023-06-05T07:34:10;94475.47;;;20.24;92.97
11808;BME280;5961;42.640;23.380;2023-06-05T07:36:38;94458.44;;;20.13;93.24
11808;BME280;5961;42.640;23.380;2023-06-05T07:39:06;94473.56;;;20.29;93.92
11808;BME280;5961;42.640;23.380;2023-06-05T07:41:34;94482.06;;;20.31;92.84
11808;BME280;5961;42.640;23.380;2023-06-05T07:44:00;94480.91;;;20.35;92.41
11808;BME280;5961;42.640;23.380;2023-06-05T07:46:27;94486.31;;;20.39;91.85
11808;BME280;5961;42.640;23.380;2023-06-05T07:48:54;94480.50;;;20.33;91.33
11808;BME280;5961;42.640;23.380;2023-06-05T07:51:21;94494.03;;;20.47;91.84
11808;BME280;5961;42.640;23.380;2023-06-05T07:53:47;94489.78;;;20.50;91.10
11808;BME280;5961;42.640;23.380;2023-06-05T07:56:15;94494.06;;;20.58;91.82
11808;BME280;5961;42.640;23.380;2023-06-05T07:58:43;94489.81;;;20.64;91.67
11808;BME280;5961;42.640;23.380;2023-06-05T08:01:10;94492.50;;;20.71;90.85
11808;BME280;5961;42.640;23.380;2023-06-05T08:03:37;94485.94;;;20.79;90.55
11808;BME280;5961;42.640;23.380;2023-06-05T08:06:04;94481.72;;;20.85;90.54
11808;BME280;5961;42.640;23.380;2023-06-05T08:08:30;94483.28;;;20.93;89.99
11808;BME280;5961;42.640;23.380;2023-06-05T08:10:57;94511.03;;;20.97;89.33
11808;BME280;5961;42.640;23.380;2023-06-05T08:13:25;94488.28;;;21.02;88.40
11808;BME280;5961;42.640;23.380;2023-06-05T08:15:52;94498.34;;;21.12;87.75
11808;BME280;5961;42.640;23.380;2023-06-05T08:18:19;94492.16;;;21.18;88.20
11808;BME280;5961;42.640;23.380;2023-06-05T08:20:46;94470.13;;;21.02;88.27
11808;BME280;5961;42.640;23.380;2023-06-05T08:23:13;94503.34;;;21.27;87.77
11808;BME280;5961;42.640;23.380;2023-06-05T08:25:42;94499.09;;;21.30;86.93
11808;BME280;5961;42.640;23.380;2023-06-05T08:28:09;94504.09;;;21.31;86.55
11808;BME280;5961;42.640;23.380;2023-06-05T08:30:37;94504.09;;;21.35;86.25
11808;BME280;5961;42.640;23.380;2023-06-05T08:33:03;94506.41;;;21.37;85.99
11808;BME280;5961;42.640;23.380;2023-06-05T08:35:30;94514.94;;;21.42;85.96
11808;BME280;5961;42.640;23.380;2023-06-05T08:37:57;94516.84;;;21.42;85.36
11808;BME280;5961;42.640;23.380;2023-06-05T08:40:26;94516.44;;;21.47;85.00
11808;BME280;5961;42.640;23.380;2023-06-05T08:42:54;94525.72;;;21.49;85.36
11808;BME280;5961;42.640;23.380;2023-06-05T08:45:21;94520.31;;;21.49;85.10
11808;BME280;5961;42.640;23.380;2023-06-05T08:47:50;94520.72;;;21.48;85.17
11808;BME280;5961;42.640;23.380;2023-06-05T08:50:17;94518.78;;;21.48;84.78
11808;BME280;5961;42.640;23.380;2023-06-05T08:52:45;94520.31;;;21.46;85.01
11808;BME280;5961;42.640;23.380;2023-06-05T08:55:15;94521.09;;;21.43;85.52
11808;BME280;5961;42.640;23.380;2023-06-05T08:57:43;94513.78;;;21.32;85.32
11808;BME280;5961;42.640;23.380;2023-06-05T09:00:10;94508.75;;;21.31;85.09
11808;BME280;5961;42.640;23.380;2023-06-05T09:02:38;94506.44;;;21.19;85.97
11808;BME280;5961;42.640;23.380;2023-06-05T09:05:10;94505.69;;;21.11;85.84
11808;BME280;5961;42.640;23.380;2023-06-05T09:07:37;94518.03;;;21.16;85.83
11808;BME280;5961;42.640;23.380;2023-06-05T09:10:06;94512.63;;;21.12;85.90
11808;BME280;5961;42.640;23.380;2023-06-05T09:12:52;94526.91;;;21.13;85.43
11808;BME280;5961;42.640;23.380;2023-06-05T09:15:22;94519.56;;;21.10;85.73
11808;BME280;5961;42.640;23.380;2023-06-05T09:18:02;94480.19;;;20.84;84.86
11808;BME280;5961;42.640;23.380;2023-06-05T09:20:30;94518.00;;;21.02;84.92
11808;BME280;5961;42.640;23.380;2023-06-05T09:23:00;94511.06;;;20.94;84.87
11808;BME280;5961;42.640;23.380;2023-06-05T09:25:27;94515.69;;;20.97;85.08
11808;BME280;5961;42.640;23.380;2023-06-05T09:28:10;94516.47;;;20.94;85.19
11808;BME280;5961;42.640;23.380;2023-06-05T09:30:53;94526.88;;;20.92;85.73
11808;BME280;5961;42.640;23.380;2023-06-05T09:33:20;94515.69;;;20.86;87.90
11808;BME280;5961;42.640;23.380;2023-06-05T09:36:01;94518.38;;;20.79;90.24
11808;BME280;5961;42.640;23.380;2023-06-05T09:38:28;94524.94;;;20.78;91.14
11808;BME280;5961;42.640;23.380;2023-06-05T09:41:01;94528.78;;;20.73;92.02
11808;BME280;5961;42.640;23.380;2023-06-05T09:43:27;94528.78;;;20.66;91.75
11808;BME280;5961;42.640;23.380;2023-06-05T09:45:54;94528.75;;;20.52;92.24
11808;BME280;5961;42.640;23.380;2023-06-05T09:48:21;94529.88;;;20.41;93.41
11808;BME280;5961;42.640;23.380;2023-06-05T09:50:49;94529.47;;;20.28;92.80
11808;BME280;5961;42.640;23.380;2023-06-05T09:53:16;94527.50;;;20.21;92.65
11808;BME280;5961;42.640;23.380;2023-06-05T09:55:43;94517.06;;;20.16;92.77
11808;BME280;5961;42.640;23.380;2023-06-05T09:58:12;94502.38;;;20.07;93.31
11808;BME280;5961;42.640;23.380;2023-06-05T10:00:40;94520.16;;;20.18;94.41
11808;BME280;5961;42.640;23.380;2023-06-05T10:03:10;94513.59;;;20.19;95.10
11808;BME280;5961;42.640;23.380;2023-06-05T10:05:40;94506.25;;;20.13;95.53
11808;BME280;5961;42.640;23.380;2023-06-05T10:08:10;94505.88;;;20.14;95.98
11808;BME280;5961;42.640;23.380;2023-06-05T10:10:37;94493.53;;;20.13;94.93
11808;BME280;5961;42.640;23.380;2023-06-05T10:13:05;94492.38;;;20.14;94.58
11808;BME280;5961;42.640;23.380;2023-06-05T10:15:32;94505.56;;;20.27;95.24
11808;BME280;5961;42.640;23.380;2023-06-05T10:18:00;94503.25;;;20.29;93.67
11808;BME280;5961;42.640;23.380;2023-06-05T10:20:27;94502.50;;;20.35;93.73
11808;BME280;5961;42.640;23.380;2023-06-05T10:22:54;94497.88;;;20.36;94.83
11808;BME280;5961;42.640;23.380;2023-06-05T10:25:23;94491.69;;;20.32;94.70
11808;BME280;5961;42.640;23.380;2023-06-05T10:27:56;94507.53;;;20.51;94.86
11808;BME280;5961;42.640;23.380;2023-06-05T10:33:47;94497.88;;;20.50;88.46
11808;BME280;5961;42.640;23.380;2023-06-05T10:36:27;94492.13;;;20.55;89.11
11808;BME280;5961;42.640;23.380;2023-06-05T10:39:06;94492.91;;;20.62;87.26
11808;BME280;5961;42.640;23.380;2023-06-05T10:41:34;94492.50;;;20.71;88.53
11808;BME280;5961;42.640;23.380;2023-06-05T10:44:01;94487.13;;;20.71;91.06
11808;BME280;5961;42.640;23.380;2023-06-05T10:46:29;94491.34;;;20.79;91.03
11808;BME280;5961;42.640;23.380;2023-06-05T10:49:17;94488.66;;;20.86;91.96
11808;BME280;5961;42.640;23.380;2023-06-05T10:51:45;94487.13;;;20.92;92.60
11808;BME280;5961;42.640;23.380;2023-06-05T10:54:13;94478.63;;;20.97;91.15
11808;BME280;5961;42.640;23.380;2023-06-05T10:57:02;94483.28;;;20.97;89.43
11808;BME280;5961;42.640;23.380;2023-06-05T10:59:31;94484.03;;;21.04;89.91
11808;BME280;5961;42.640;23.380;2023-06-05T11:02:24;94470.16;;;21.16;93.31
11808;BME280;5961;42.640;23.380;2023-06-05T11:05:08;94465.88;;;21.15;92.27
11808;BME280;5961;42.640;23.380;2023-06-05T11:07:36;94472.44;;;21.25;92.17
11808;BME280;5961;42.640;23.380;2023-06-05T11:10:13;94470.91;;;21.31;90.32
11808;BME280;5961;42.640;23.380;2023-06-05T11:13:00;94463.16;;;21.37;90.02
11808;BME280;5961;42.640;23.380;2023-06-05T11:18:33;94472.41;;;21.50;90.07
11808;BME280;5961;42.640;23.380;2023-06-05T11:21:01;94467.38;;;21.52;87.33
11808;BME280;5961;42.640;23.380;2023-06-05T11:23:28;94469.28;;;21.55;87.91
11808;BME280;5961;42.640;23.380;2023-06-05T11:25:57;94470.06;;;21.62;84.27
11808;BME280;5961;42.640;23.380;2023-06-05T11:28:39;94440.28;;;21.62;84.96
11808;BME280;5961;42.640;23.380;2023-06-05T11:31:06;94422.94;;;21.53;86.52
11808;BME280;5961;42.640;23.380;2023-06-05T11:33:33;94464.56;;;21.87;85.94
11808;BME280;5961;42.640;23.380;2023-06-05T11:36:01;94464.56;;;21.87;82.77
11808;BME280;5961;42.640;23.380;2023-06-05T11:38:28;94459.53;;;21.96;83.67
11808;BME280;5961;42.640;23.380;2023-06-05T11:40:55;94456.03;;;21.99;86.44
11808;BME280;5961;42.640;23.380;2023-06-05T11:43:22;94452.13;;;22.07;86.92
11808;BME280;5961;42.640;23.380;2023-06-05T11:45:52;94448.88;;;22.33;86.63
11808;BME280;5961;42.640;23.380;2023-06-05T11:48:19;94452.94;;;22.63;87.55
11808;BME280;5961;42.640;23.380;2023-06-05T11:50:53;94444.66;;;22.87;85.27
11808;BME280;5961;42.640;23.380;2023-06-05T11:53:21;94442.06;;;23.18;84.08
11808;BME280;5961;42.640;23.380;2023-06-05T11:55:48;94440.25;;;23.45;83.45
11808;BME280;5961;42.640;23.380;2023-06-05T11:58:33;94438.34;;;23.76;84.00
11808;BME280;5961;42.640;23.380;2023-06-05T12:01:07;94446.88;;;24.08;80.88
11808;BME280;5961;42.640;23.380;2023-06-05T12:03:38;94448.09;;;24.34;78.40
11808;BME280;5961;42.640;23.380;2023-06-05T12:06:06;94441.53;;;24.58;77.34
11808;BME280;5961;42.640;23.380;2023-06-05T12:08:33;94425.28;;;24.54;74.32
11808;BME280;5961;42.640;23.380;2023-06-05T12:11:02;94421.00;;;24.80;72.26
11808;BME280;5961;42.640;23.380;2023-06-05T12:13:44;94416.69;;;24.86;72.19
11808;BME280;5961;42.640;23.380;2023-06-05T12:16:13;94396.59;;;24.77;72.73
11808;BME280;5961;42.640;23.380;2023-06-05T12:18:40;94421.38;;;25.05;71.52
11808;BME280;5961;42.640;23.380;2023-06-05T12:21:19;94415.59;;;25.03;70.05
11808;BME280;5961;42.640;23.380;2023-06-05T12:23:46;94410.34;;;24.93;70.46
11808;BME280;5961;42.640;23.380;2023-06-05T12:26:13;94410.69;;;24.95;70.18
11808;BME280;5961;42.640;23.380;2023-06-05T12:28:41;94405.97;;;24.99;68.60
11808;BME280;5961;42.640;23.380;2023-06-05T12:31:08;94407.28;;;25.14;69.87
11808;BME280;5961;42.640;23.380;2023-06-05T12:33:48;94407.72;;;25.32;70.58
11808;BME280;5961;42.640;23.380;2023-06-05T12:36:15;94402.28;;;25.32;69.77
11808;BME280;5961;42.640;23.380;2023-06-05T12:38:42;94399.63;;;25.29;68.68
11808;BME280;5961;42.640;23.380;2023-06-05T12:41:10;94398.13;;;25.24;69.20
11808;BME280;5961;42.640;23.380;2023-06-05T12:43:37;94392.75;;;25.21;68.73
11808;BME280;5961;42.640;23.380;2023-06-05T12:46:05;94388.25;;;25.34;67.78
11808;BME280;5961;42.640;23.380;2023-06-05T12:48:33;94375.53;;;25.27;67.95
11808;BME280;5961;42.640;23.380;2023-06-05T12:51:02;94378.75;;;25.42;66.35
11808;BME280;5961;42.640;23.380;2023-06-05T12:53:30;94377.25;;;25.60;66.49
11808;BME280;5961;42.640;23.380;2023-06-05T12:55:57;94373.91;;;25.73;66.97
11808;BME280;5961;42.640;23.380;2023-06-05T12:58:23;94380.88;;;25.74;67.83
11808;BME280;5961;42.640;23.380;2023-06-05T13:00:50;94381.72;;;25.71;66.85
11808;BME280;5961;42.640;23.380;2023-06-05T13:03:17;94384.94;;;25.66;64.78
11808;BME280;5961;42.640;23.380;2023-06-05T13:05:44;94382.19;;;25.85;64.94
11808;BME280;5961;42.640;23.380;2023-06-05T13:08:12;94378.38;;;25.83;64.40